createdAt,value
2018-07-14T00:00:03.428Z,1.90
2018-07-14T00:02:32.825Z,2.67
2018-07-14T00:05:02.035Z,1.93
2018-07-14T00:07:31.241Z,3.20
2018-07-14T00:10:00.717Z,2.30
2018-07-14T00:12:30.369Z,2.00
2018-07-14T00:15:00.095Z,1.87
2018-07-14T00:17:29.799Z,2.03
2018-07-14T00:19:59.181Z,1.93
2018-07-14T00:22:29.418Z,2.53
2018-07-14T00:24:58.623Z,2.20
2018-07-14T00:27:27.858Z,2.30
2018-07-14T00:29:57.271Z,2.30
2018-07-14T00:32:26.675Z,2.20
2018-07-14T00:34:55.835Z,1.87
2018-07-14T00:37:25.359Z,2.20
2018-07-14T00:39:55.095Z,2.60
2018-07-14T00:42:25.044Z,2.20
2018-07-14T00:44:54.451Z,2.10
2018-07-14T00:47:23.661Z,2.40
2018-07-14T00:49:52.832Z,2.40
2018-07-14T00:52:22.003Z,2.50
2018-07-14T00:54:51.664Z,2.00
2018-07-14T00:57:21.319Z,2.37
2018-07-14T00:59:50.713Z,2.73
2018-07-14T01:02:20.947Z,3.00
2018-07-14T01:04:50.330Z,2.30
2018-07-14T01:07:19.528Z,2.70
2018-07-14T01:09:48.989Z,3.00
2018-07-14T01:12:18.365Z,2.73
2018-07-14T01:14:47.794Z,2.60
2018-07-14T01:17:17.202Z,2.90
2018-07-14T01:19:46.669Z,2.20
2018-07-14T01:22:16.219Z,2.00
2018-07-14T01:24:45.384Z,2.10
2018-07-14T01:27:15.506Z,1.50
2018-07-14T01:29:45.179Z,2.10
2018-07-14T01:32:14.601Z,2.03
2018-07-14T01:34:43.970Z,2.53
2018-07-14T01:37:13.168Z,2.60
2018-07-14T01:39:42.571Z,2.20
2018-07-14T01:42:12.791Z,2.17
2018-07-14T01:44:42.051Z,2.47
2018-07-14T01:47:11.547Z,2.73
2018-07-14T01:49:40.981Z,3.00
2018-07-14T01:52:10.567Z,2.70
2018-07-14T01:54:40.234Z,2.20
2018-07-14T01:57:09.620Z,2.10
2018-07-14T01:59:39.105Z,2.40
2018-07-14T02:02:08.493Z,2.60
2018-07-14T02:04:37.699Z,3.13
2018-07-14T02:07:07.285Z,2.93
2018-07-14T02:09:36.700Z,2.90
2018-07-14T02:12:05.897Z,2.40
2018-07-14T02:14:35.085Z,2.90
2018-07-14T02:17:04.281Z,3.10
2018-07-14T02:19:33.731Z,2.63
2018-07-14T02:22:03.119Z,2.37
2018-07-14T02:24:32.334Z,3.10
2018-07-14T02:27:01.506Z,3.03
2018-07-14T02:29:30.819Z,2.53
2018-07-14T02:32:00.227Z,2.20
2018-07-14T02:34:29.874Z,2.77
2018-07-14T02:36:59.520Z,2.80
2018-07-14T02:39:28.927Z,2.87
2018-07-14T02:41:58.127Z,2.50
2018-07-14T02:44:27.591Z,3.07
2018-07-14T02:46:57.297Z,2.90
2018-07-14T02:49:27.088Z,3.47
2018-07-14T02:51:57.655Z,3.80
2018-07-14T02:54:27.057Z,2.73
2018-07-14T02:56:56.977Z,2.77
2018-07-14T02:59:26.378Z,3.50
2018-07-14T03:01:55.548Z,2.93
2018-07-14T03:04:25.097Z,3.27
2018-07-14T03:06:54.521Z,2.70
2018-07-14T03:09:23.687Z,2.87
2018-07-14T03:11:53.112Z,3.23
2018-07-14T03:14:22.528Z,3.80
2018-07-14T03:16:51.932Z,3.57
2018-07-14T03:19:21.329Z,3.67
2018-07-14T03:21:50.761Z,3.50
2018-07-14T03:24:20.192Z,3.83
2018-07-14T03:26:49.658Z,2.60
2018-07-14T03:29:19.064Z,2.83
2018-07-14T03:31:48.218Z,3.87
2018-07-14T03:34:17.550Z,3.50
2018-07-14T03:36:47.002Z,3.23
2018-07-14T03:39:16.562Z,4.10
2018-07-14T03:41:46.010Z,4.10
2018-07-14T03:44:15.776Z,4.30
2018-07-14T03:46:45.214Z,3.70
2018-07-14T03:49:14.631Z,4.70
2018-07-14T03:51:44.029Z,4.13
2018-07-14T03:54:13.579Z,4.00
2018-07-14T03:56:43.262Z,3.70
2018-07-14T03:59:12.701Z,4.50
2018-07-14T04:01:42.162Z,4.60
2018-07-14T04:04:11.556Z,5.17
2018-07-14T04:06:40.990Z,5.17
2018-07-14T04:09:10.646Z,4.27
2018-07-14T04:11:40.040Z,4.60
2018-07-14T04:14:09.503Z,4.70
2018-07-14T04:16:38.899Z,5.87
2018-07-14T04:19:08.158Z,5.73
2018-07-14T04:21:37.323Z,4.53
2018-07-14T04:24:06.853Z,4.70
2018-07-14T04:26:36.211Z,5.80
2018-07-14T04:29:05.592Z,5.70
2018-07-14T04:31:35.781Z,5.30
2018-07-14T04:34:04.984Z,5.33
2018-07-14T04:36:34.218Z,4.70
2018-07-14T04:39:04.411Z,5.10
2018-07-14T04:41:34.113Z,5.30
2018-07-14T04:44:03.656Z,4.80
2018-07-14T04:46:33.117Z,5.20
2018-07-14T04:49:02.518Z,5.30
2018-07-14T04:51:31.721Z,5.03
2018-07-14T04:54:01.195Z,5.67
2018-07-14T04:56:30.589Z,4.63
2018-07-14T04:59:00.070Z,5.03
2018-07-14T05:01:29.480Z,6.30
2018-07-14T05:03:58.690Z,4.30
2018-07-14T05:06:27.909Z,4.97
2018-07-14T05:08:57.103Z,5.10
2018-07-14T05:11:26.273Z,5.30
2018-07-14T05:13:55.551Z,5.20
2018-07-14T05:16:24.898Z,5.20
2018-07-14T05:18:54.091Z,5.33
2018-07-14T05:21:23.551Z,5.60
2018-07-14T05:23:53.652Z,5.70
2018-07-14T05:26:23.289Z,6.50
2018-07-14T05:28:52.939Z,5.57
2018-07-14T05:31:22.347Z,5.90
2018-07-14T05:33:51.553Z,5.83
2018-07-14T05:36:20.731Z,7.17
2018-07-14T05:38:50.214Z,5.90
2018-07-14T05:41:19.613Z,6.40
2018-07-14T05:43:49.085Z,6.97
2018-07-14T05:46:18.495Z,5.90
2018-07-14T05:48:47.937Z,6.60
2018-07-14T05:51:17.379Z,6.10
2018-07-14T05:53:46.577Z,7.03
2018-07-14T05:56:16.019Z,7.23
2018-07-14T05:58:45.648Z,7.20
2018-07-14T06:01:15.059Z,7.90
2018-07-14T06:03:44.239Z,6.80
2018-07-14T06:06:13.452Z,7.57
2018-07-14T06:08:42.628Z,6.03
2018-07-14T06:11:12.357Z,7.07
2018-07-14T06:13:42.009Z,7.37
2018-07-14T06:16:11.438Z,7.23
2018-07-14T06:18:40.988Z,6.90
2018-07-14T06:21:10.464Z,6.17
2018-07-14T06:23:40.155Z,6.50
2018-07-14T06:26:09.560Z,5.53
2018-07-14T06:28:38.790Z,5.90
2018-07-14T06:31:08.103Z,6.30
2018-07-14T06:33:37.538Z,5.10
2018-07-14T06:36:07.263Z,5.47
2018-07-14T06:38:36.497Z,5.37
2018-07-14T06:41:05.644Z,5.37
2018-07-14T06:43:34.892Z,5.43
2018-07-14T06:46:04.334Z,5.50
2018-07-14T06:48:34.141Z,5.70
2018-07-14T06:51:03.621Z,5.70
2018-07-14T06:53:32.902Z,5.53
2018-07-14T06:56:02.449Z,4.47
2018-07-14T06:58:32.103Z,5.10
2018-07-14T07:01:01.767Z,4.10
2018-07-14T07:03:31.147Z,4.70
2018-07-14T07:06:00.641Z,4.27
2018-07-14T07:08:30.307Z,4.90
2018-07-14T07:10:59.749Z,4.80
2018-07-14T07:13:29.285Z,4.77
2018-07-14T07:15:58.672Z,4.33
2018-07-14T07:18:27.877Z,4.80
2018-07-14T07:20:57.116Z,5.07
2018-07-14T07:23:26.346Z,4.43
2018-07-14T07:25:55.627Z,4.17
2018-07-14T07:28:25.153Z,4.23
2018-07-14T07:30:54.651Z,5.00
2018-07-14T07:33:23.812Z,4.60
2018-07-14T07:35:53.601Z,5.90
2018-07-14T07:38:23.023Z,5.50
2018-07-14T07:40:52.216Z,4.83
2018-07-14T07:43:21.726Z,2.37
2018-07-14T07:45:51.138Z,2.40
2018-07-14T07:48:20.426Z,3.20
2018-07-14T07:50:49.645Z,3.23
2018-07-14T07:53:19.048Z,3.77
2018-07-14T07:55:48.460Z,2.80
2018-07-14T07:58:17.902Z,2.40
2018-07-14T08:00:47.306Z,3.67
2018-07-14T08:03:16.815Z,2.40
2018-07-14T08:05:46.374Z,2.20
2018-07-14T08:08:15.532Z,2.73
2018-07-14T08:10:45.075Z,3.07
2018-07-14T08:13:14.506Z,2.03
2018-07-14T08:15:43.734Z,2.60
2018-07-14T08:18:12.952Z,2.30
2018-07-14T08:20:42.466Z,2.17
2018-07-14T08:23:11.913Z,2.40
2018-07-14T08:25:41.358Z,2.17
2018-07-14T08:28:10.814Z,1.95
2018-07-14T08:30:40.033Z,2.20
2018-07-14T08:33:09.465Z,1.80
2018-07-14T08:35:39.152Z,2.20
2018-07-14T08:38:08.586Z,2.17
2018-07-14T08:40:38.016Z,2.10
2018-07-14T08:43:07.408Z,2.30
2018-07-14T08:45:36.846Z,2.30
2018-07-14T08:48:06.735Z,1.80
2018-07-14T08:50:36.174Z,1.50
2018-07-14T08:53:05.691Z,1.97
2018-07-14T08:55:35.127Z,1.70
2018-07-14T08:58:04.462Z,2.07
2018-07-14T09:00:33.744Z,1.97
2018-07-14T09:03:03.175Z,1.62
2018-07-14T09:05:32.572Z,1.73
2018-07-14T09:08:01.800Z,1.87
2018-07-14T09:10:31.044Z,2.10
2018-07-14T09:13:00.501Z,1.60
2018-07-14T09:15:30.284Z,1.63
2018-07-14T09:17:59.468Z,1.37
2018-07-14T09:20:28.646Z,1.50
2018-07-14T09:22:59.582Z,1.77
2018-07-14T09:25:29.018Z,1.70
2018-07-14T09:27:58.245Z,1.77
2018-07-14T09:30:27.786Z,1.70
2018-07-14T09:32:57.425Z,1.63
2018-07-14T09:35:27.045Z,1.73
2018-07-14T09:37:57.931Z,1.30
2018-07-14T09:40:27.298Z,1.40
2018-07-14T09:42:56.760Z,1.50
2018-07-14T09:45:26.163Z,1.37
2018-07-14T09:47:55.623Z,1.30
2018-07-14T09:50:25.297Z,1.40
2018-07-14T09:52:54.745Z,1.10
2018-07-14T09:55:23.938Z,1.10
2018-07-14T09:57:53.250Z,1.23
2018-07-14T10:00:28.183Z,1.40
2018-07-14T10:02:57.614Z,1.60
2018-07-14T10:05:26.841Z,1.40
2018-07-14T10:07:56.043Z,1.60
2018-07-14T10:10:25.720Z,1.10
2018-07-14T10:12:55.045Z,1.60
2018-07-14T10:15:24.248Z,1.53
2018-07-14T10:17:53.414Z,1.33
2018-07-14T10:20:22.878Z,1.17
2018-07-14T10:22:52.563Z,1.40
2018-07-14T10:25:22.186Z,1.20
2018-07-14T10:27:51.456Z,1.40
2018-07-14T10:30:21.134Z,1.40
2018-07-14T10:32:50.552Z,1.40
2018-07-14T10:35:20.209Z,1.50
2018-07-14T10:37:49.638Z,1.50
2018-07-14T10:40:18.883Z,1.60
2018-07-14T10:42:48.399Z,1.20
2018-07-14T10:45:18.581Z,2.10
2018-07-14T10:47:48.249Z,1.50
2018-07-14T10:50:17.908Z,1.80
2018-07-14T10:52:47.656Z,1.30
2018-07-14T10:55:17.878Z,1.50
2018-07-14T10:57:47.540Z,1.80
2018-07-14T11:00:16.938Z,1.60
2018-07-14T11:02:46.380Z,1.87
2018-07-14T11:05:17.652Z,1.80
2018-07-14T11:07:47.042Z,1.77
2018-07-14T11:10:17.374Z,1.50
2018-07-14T11:12:46.828Z,1.53
2018-07-14T11:15:16.302Z,1.93
2018-07-14T11:17:45.960Z,1.70
2018-07-14T11:20:15.573Z,2.03
2018-07-14T11:22:45.013Z,2.50
2018-07-14T11:25:14.236Z,1.60
2018-07-14T11:27:43.394Z,2.67
2018-07-14T11:30:12.663Z,1.70
2018-07-14T11:32:41.804Z,1.70
2018-07-14T11:35:11.092Z,1.50
2018-07-14T11:37:40.295Z,1.80
2018-07-14T11:40:09.754Z,1.60
2018-07-14T11:42:39.128Z,1.90
2018-07-14T11:45:08.366Z,1.50
2018-07-14T11:47:37.591Z,1.73
2018-07-14T11:50:08.458Z,1.77
2018-07-14T11:52:37.860Z,1.80
2018-07-14T11:55:07.330Z,1.70
2018-07-14T11:57:36.760Z,1.70
2018-07-14T12:00:09.538Z,1.63
2018-07-14T12:02:38.944Z,1.47
2018-07-14T12:05:08.142Z,1.40
2018-07-14T12:07:37.383Z,1.40
2018-07-14T12:10:06.829Z,1.40
2018-07-14T12:12:36.470Z,1.10
2018-07-14T12:15:06.754Z,1.30
2018-07-14T12:17:35.982Z,1.67
2018-07-14T12:20:05.824Z,1.20
2018-07-14T12:22:35.246Z,1.40
2018-07-14T12:25:04.428Z,3.00
2018-07-14T12:27:33.920Z,1.43
2018-07-14T12:30:03.353Z,1.33
2018-07-14T12:32:32.556Z,1.40
2018-07-14T12:35:03.007Z,1.37
2018-07-14T12:37:32.635Z,1.53
2018-07-14T12:40:02.338Z,1.70
2018-07-14T12:42:32.300Z,1.40
2018-07-14T12:45:01.949Z,1.20
2018-07-14T12:47:32.090Z,1.73
2018-07-14T12:50:01.521Z,1.40
2018-07-14T12:52:30.935Z,1.40
2018-07-14T12:55:00.669Z,1.50
2018-07-14T12:57:30.075Z,1.60
2018-07-14T12:59:59.275Z,2.10
2018-07-14T13:02:28.512Z,1.80
2018-07-14T13:04:57.742Z,1.53
2018-07-14T13:07:27.013Z,1.33
2018-07-14T13:09:56.639Z,1.60
2018-07-14T13:12:26.220Z,1.73
2018-07-14T13:14:55.836Z,1.30
2018-07-14T13:17:25.251Z,1.80
2018-07-14T13:19:55.436Z,1.83
2018-07-14T13:22:24.869Z,1.60
2018-07-14T13:24:54.353Z,1.67
2018-07-14T13:27:23.530Z,1.40
2018-07-14T13:29:52.963Z,1.40
2018-07-14T13:32:22.383Z,1.77
2018-07-14T13:34:51.860Z,1.53
2018-07-14T13:37:22.906Z,1.53
2018-07-14T13:39:52.596Z,1.27
2018-07-14T13:42:21.980Z,1.10
2018-07-14T13:44:51.464Z,1.17
2018-07-14T13:47:21.133Z,1.60
2018-07-14T13:49:50.549Z,1.23
2018-07-14T13:52:19.717Z,1.10
2018-07-14T13:54:49.162Z,1.33
2018-07-14T13:57:18.619Z,0.83
2018-07-14T13:59:48.077Z,1.00
2018-07-14T14:02:17.494Z,0.90
2018-07-14T14:04:46.894Z,0.80
2018-07-14T14:07:16.376Z,1.20
2018-07-14T14:09:46.139Z,0.90
2018-07-14T14:12:15.796Z,0.77
2018-07-14T14:14:45.492Z,1.20
2018-07-14T14:17:15.060Z,0.70
2018-07-14T14:19:44.484Z,1.00
2018-07-14T14:22:15.284Z,1.00
2018-07-14T14:24:44.766Z,1.00
2018-07-14T14:27:14.230Z,0.77
2018-07-14T14:29:43.898Z,0.73
2018-07-14T14:32:13.302Z,1.00
2018-07-14T14:34:42.530Z,0.97
2018-07-14T14:37:11.774Z,0.87
2018-07-14T14:39:41.173Z,0.97
2018-07-14T14:42:10.582Z,0.90
2018-07-14T14:44:40.081Z,1.00
2018-07-14T14:47:09.773Z,1.00
2018-07-14T14:49:39.898Z,0.70
2018-07-14T14:52:09.578Z,0.83
2018-07-14T14:54:39.034Z,1.00
2018-07-14T14:57:08.540Z,0.90
2018-07-14T14:59:38.178Z,0.80
2018-07-14T15:02:07.547Z,0.80
2018-07-14T15:04:36.723Z,0.70
2018-07-14T15:07:06.324Z,0.80
2018-07-14T15:09:35.716Z,1.07
2018-07-14T15:12:05.159Z,1.00
2018-07-14T15:14:34.828Z,1.13
2018-07-14T15:17:04.552Z,0.73
2018-07-14T15:19:35.204Z,0.60
2018-07-14T15:22:04.666Z,0.83
2018-07-14T15:24:33.867Z,0.80
2018-07-14T15:27:03.058Z,0.80
2018-07-14T15:29:32.298Z,0.70
2018-07-14T15:32:01.510Z,0.70
2018-07-14T15:34:30.737Z,0.60
2018-07-14T15:37:00.518Z,0.60
2018-07-14T15:39:29.961Z,0.77
2018-07-14T15:41:59.219Z,0.60
2018-07-14T15:44:28.459Z,0.60
2018-07-14T15:46:57.971Z,0.60
2018-07-14T15:49:27.389Z,0.60
2018-07-14T15:51:58.676Z,0.50
2018-07-14T15:54:27.911Z,0.90
2018-07-14T15:56:57.321Z,0.50
2018-07-14T15:59:26.843Z,0.60
2018-07-14T16:01:56.093Z,0.50
2018-07-14T16:04:25.422Z,0.80
2018-07-14T16:06:55.756Z,0.60
2018-07-14T16:09:24.927Z,0.67
2018-07-14T16:11:54.107Z,0.60
2018-07-14T16:14:23.310Z,0.60
2018-07-14T16:16:53.010Z,0.50
2018-07-14T16:19:22.266Z,0.50
2018-07-14T16:21:51.484Z,0.60
2018-07-14T16:24:20.715Z,0.63
2018-07-14T16:26:50.586Z,0.70
2018-07-14T16:29:20.027Z,0.60
2018-07-14T16:31:49.264Z,0.70
2018-07-14T16:34:18.528Z,0.50
2018-07-14T16:36:47.716Z,0.40
2018-07-14T16:39:17.198Z,0.50
2018-07-14T16:41:46.664Z,0.40
2018-07-14T16:44:16.819Z,0.53
2018-07-14T16:46:45.984Z,0.80
2018-07-14T16:49:15.843Z,0.70
2018-07-14T16:51:45.097Z,0.70
2018-07-14T16:54:18.434Z,0.70
2018-07-14T16:56:48.489Z,0.70
2018-07-14T16:59:17.687Z,0.77
2018-07-14T17:01:46.893Z,0.90
2018-07-14T17:04:16.170Z,0.80
2018-07-14T17:06:45.727Z,0.80
2018-07-14T17:09:15.413Z,0.63
2018-07-14T17:11:44.662Z,0.70
2018-07-14T17:14:14.834Z,1.00
2018-07-14T17:16:44.207Z,0.90
2018-07-14T17:19:13.641Z,0.67
2018-07-14T17:21:43.145Z,0.90
2018-07-14T17:24:12.752Z,0.73
2018-07-14T17:26:42.204Z,1.20
2018-07-14T17:29:11.396Z,1.30
2018-07-14T17:31:40.624Z,0.97
2018-07-14T17:34:09.844Z,0.90
2018-07-14T17:36:39.058Z,1.40
2018-07-14T17:39:08.952Z,1.00
2018-07-14T17:41:38.432Z,1.10
2018-07-14T17:44:07.770Z,1.03
2018-07-14T17:46:38.167Z,1.10
2018-07-14T17:49:07.404Z,0.90
2018-07-14T17:51:36.887Z,1.00
2018-07-14T17:54:06.606Z,1.10
2018-07-14T17:56:35.777Z,1.00
2018-07-14T17:59:06.996Z,0.80
2018-07-14T18:01:36.200Z,0.87
2018-07-14T18:04:05.886Z,1.20
2018-07-14T18:06:35.351Z,1.20
2018-07-14T18:09:06.073Z,0.83
2018-07-14T18:11:35.306Z,0.90
2018-07-14T18:14:04.814Z,0.90
2018-07-14T18:16:34.611Z,1.00
2018-07-14T18:19:04.117Z,1.17
2018-07-14T18:21:33.638Z,1.03
2018-07-14T18:24:03.124Z,0.80
2018-07-14T18:26:32.410Z,1.00
2018-07-14T18:29:01.606Z,1.27
2018-07-14T18:31:30.875Z,0.90
2018-07-14T18:34:00.382Z,0.90
2018-07-14T18:36:30.017Z,1.10
2018-07-14T18:38:59.692Z,0.90
2018-07-14T18:41:29.110Z,0.80
2018-07-14T18:43:58.387Z,0.80
2018-07-14T18:46:27.783Z,0.90
2018-07-14T18:48:58.416Z,0.70
2018-07-14T18:51:28.315Z,1.07
2018-07-14T18:53:57.770Z,0.90
2018-07-14T18:56:28.521Z,0.93
2018-07-14T18:58:57.951Z,1.03
2018-07-14T19:01:27.212Z,1.00
2018-07-14T19:03:56.678Z,0.90
2018-07-14T19:06:26.094Z,1.00
2018-07-14T19:08:55.587Z,1.53
2018-07-14T19:11:25.292Z,1.30
2018-07-14T19:13:54.694Z,0.87
2018-07-14T19:16:24.187Z,0.97
2018-07-14T19:18:53.926Z,1.07
2018-07-14T19:21:23.522Z,0.80
2018-07-14T19:23:53.209Z,1.10
2018-07-14T19:26:22.692Z,1.00
2018-07-14T19:28:51.858Z,1.10
2018-07-14T19:31:21.074Z,0.80
2018-07-14T19:33:50.447Z,1.07
2018-07-14T19:36:19.727Z,1.13
2018-07-14T19:38:49.187Z,1.00
2018-07-14T19:41:18.652Z,1.30
2018-07-14T19:43:48.186Z,1.27
2018-07-14T19:46:17.410Z,0.93
2018-07-14T19:48:46.652Z,1.17
2018-07-14T19:51:16.109Z,1.07
2018-07-14T19:53:45.811Z,0.80
2018-07-14T19:56:15.602Z,1.07
2018-07-14T19:58:44.974Z,1.20
2018-07-14T20:01:14.213Z,1.20
2018-07-14T20:03:43.903Z,1.30
2018-07-14T20:06:13.456Z,1.60
2018-07-14T20:08:42.714Z,2.03
2018-07-14T20:11:11.902Z,2.07
2018-07-14T20:13:41.136Z,1.97
2018-07-14T20:16:10.449Z,1.87
2018-07-14T20:18:40.045Z,2.63
2018-07-14T20:21:09.299Z,1.60
2018-07-14T20:23:38.855Z,2.10
2018-07-14T20:26:08.299Z,2.27
2018-07-14T20:28:37.752Z,2.50
2018-07-14T20:31:07.196Z,3.33
2018-07-14T20:33:36.791Z,3.17
2018-07-14T20:36:06.631Z,2.90
2018-07-14T20:38:36.057Z,3.03
2018-07-14T20:41:05.571Z,2.40
2018-07-14T20:43:34.832Z,3.00
2018-07-14T20:46:05.029Z,2.57
2018-07-14T20:48:36.380Z,2.57
2018-07-14T20:51:06.059Z,2.77
2018-07-14T20:53:37.475Z,2.63
2018-07-14T20:56:08.257Z,2.43
2018-07-14T20:58:37.729Z,2.60
2018-07-14T21:01:06.946Z,1.70
2018-07-14T21:03:36.759Z,2.50
2018-07-14T21:06:07.051Z,1.70
2018-07-14T21:08:36.260Z,2.00
2018-07-14T21:11:05.647Z,2.27
2018-07-14T21:13:35.118Z,2.10
2018-07-14T21:16:04.880Z,1.80
2018-07-14T21:18:34.288Z,1.97
2018-07-14T21:21:03.727Z,1.87
2018-07-14T21:23:33.153Z,1.70
2018-07-14T21:26:02.890Z,1.60
2018-07-14T21:28:32.371Z,1.60
2018-07-14T21:31:01.567Z,1.93
2018-07-14T21:33:30.975Z,2.23
2018-07-14T21:36:00.400Z,2.63
2018-07-14T21:38:29.578Z,1.70
2018-07-14T21:40:58.801Z,1.83
2018-07-14T21:43:28.231Z,2.17
2018-07-14T21:45:57.647Z,1.67
2018-07-14T21:48:27.133Z,2.00
2018-07-14T21:50:56.663Z,1.90
2018-07-14T21:53:26.176Z,1.80
2018-07-14T21:55:55.864Z,2.40
2018-07-14T21:58:25.277Z,1.60
2018-07-14T22:01:03.566Z,1.70
2018-07-14T22:03:33.947Z,1.93
2018-07-14T22:06:04.077Z,2.17
2018-07-14T22:08:33.522Z,2.37
2018-07-14T22:11:02.950Z,2.00
2018-07-14T22:13:32.152Z,2.50
2018-07-14T22:16:01.610Z,1.90
2018-07-14T22:18:30.992Z,1.90
2018-07-14T22:21:01.182Z,1.90
2018-07-14T22:23:30.583Z,1.70
2018-07-14T22:25:59.788Z,2.10
2018-07-14T22:28:29.306Z,2.23
2018-07-14T22:30:58.722Z,1.97
2018-07-14T22:33:28.445Z,2.00
2018-07-14T22:35:57.854Z,2.17
2018-07-14T22:38:27.285Z,2.00
2018-07-14T22:40:56.686Z,1.73
2018-07-14T22:43:26.147Z,2.20
2018-07-14T22:45:55.597Z,2.50
2018-07-14T22:48:25.023Z,2.20
2018-07-14T22:50:54.426Z,2.20
2018-07-14T22:53:23.823Z,2.20
2018-07-14T22:55:53.217Z,1.80
2018-07-14T22:58:22.415Z,2.50
2018-07-14T23:00:51.762Z,2.20
2018-07-14T23:03:20.959Z,1.90
2018-07-14T23:05:50.130Z,2.00
2018-07-14T23:08:19.446Z,2.10
2018-07-14T23:10:48.952Z,3.07
2018-07-14T23:13:18.525Z,2.47
2018-07-14T23:15:49.228Z,2.70
2018-07-14T23:18:18.660Z,2.10
2018-07-14T23:20:48.692Z,2.10
2018-07-14T23:23:18.211Z,2.57
2018-07-14T23:25:47.780Z,1.47
2018-07-14T23:28:17.307Z,2.13
2018-07-14T23:30:46.493Z,1.97
2018-07-14T23:33:15.747Z,1.80
2018-07-14T23:35:45.218Z,2.10
2018-07-14T23:38:15.139Z,2.50
2018-07-14T23:40:44.611Z,2.67
2018-07-14T23:43:14.035Z,2.53
2018-07-14T23:45:43.503Z,2.50
2018-07-14T23:48:12.921Z,2.33
2018-07-14T23:50:42.106Z,2.70
2018-07-14T23:53:11.551Z,2.13
2018-07-14T23:55:40.999Z,2.03
2018-07-14T23:58:10.169Z,1.93
